Coity, United Kingdom
Current Conditions -  °F | °C
As of 1:50 PM on Saturday 22 Nov 2014 (Local Time) from EGDX Reporting Station
Few Clouds Few Clouds  
Wind Chill: 57°   Ceiling: Unl
Heat Index: 57°   Visibility: 6mi
Dew Point: 50°   Wind: 6mph
Humidity: 77%   Direction: 260°W
Pressure: 29.85"   Gusts: NA
Location:  51.52°N, 3.56°W
Report Text: EGDX 221350Z 26005KT 9999 FEW012 14/10 Q1011 BLU
Loading
Personal Weather Stations






























Interactive Weather Map New forecast layout! Learn more

10-Day Weather Forecast

Advertisements
Track Severe Weather on mobile